Terminal Aerodrome Forecast
Issued by NWS

Current Version | Previous Version | Text Only | Print | Product List | Glossary On
Versions: 1 2 3 4 5 6 7 8 9 10 11 12 13 14 15
573
FTUS46 KHNX 092320
TAFMCE
TAF
KMCE 092320Z 1000/1024 11005KT P6SM FEW025 BKN040
      TEMPO 1005/1008 4SM -RA BR BKN020
     FM100800 13010KT 4SM -RA BR OVC020
     FM101200 16008KT 4SM -SHRA BR BKN030=

USA.gov is the U.S. government's official web portal to all federal, state and local government web resources and services.